Berkeley Heights, NJ (07922)

9:06 PM EST on February 06, 2016 (GMT -0500)
New Providence | | Change Station
CLOSE
Current Station
Personal Weather Station
Location: New Providence, NJ
Elevation: 259 ft
Nearby Weather Stations

Elev 259 ft 40.69 °N, 74.42 °W | Updated 4 seconds ago

Clear
Clear
27.5 °F
Feels Like 28 °F
N
0.0
Wind Variable Wind from ESE
Gusts 0.0 mph

Today
High -- | Low -- °F
--% Chance of Precip.
Yesterday
High -- | Low -- °F
Precip. -- in
Pressure 30.29 in
Visibility 10.0 miles
Clouds Scattered Clouds 18000 ft
Windchill 28 °F
Dew Point 19 °F
Humidity 70%
Rainfall 0.24 in
Snow Depth Not available.
7:03 AM 5:21 PM
Waning Crescent, 3% visible
METAR KMMU 070145Z 00000KT 10SM SCT180 M03/M05 A3029
Pressure 30.29 in
Visibility 10.0 miles
Clouds Scattered Clouds 18000 ft
Windchill 28 °F
Dew Point 19 °F
Humidity 70%
Rainfall 0.24 in
Snow Depth Not available.
7:03 AM 5:21 PM
Waning Crescent, 3% visible
METAR KMMU 070145Z 00000KT 10SM SCT180 M03/M05 A3029

10-Day Weather Forecast

Almanac

Astronomy

Feb. 06, 2016 Rise Set
Actual Time
Civil Twilight
Nautical Twilight
Astronomical Twilight
Moon
Length of Visible Light
Length of Day
Tomorrow will be .
, % of the Moon is Illuminated

Today's Extremes

State Highs State Lows

Community

WunderPhotos

Upload Photos

1,891,132 photos uploaded!

WunderBlog® & News

Nearby

Air Quality

  Air Quality AQ Index Pollutant
Not available.

Snow Depth

Station Depth Elevation

Earthquake Activity

City Distance Mag. Time & Date
Minimum magnitude displayed is 2.5.

Coastal Water Temperatures

Place Temperature

Stations

Nearby Weather Stations

Station Location Temp. Windchill Dew Point Humidity Wind Precip. Elev Updated Type
                   

Watches & Warnings

There are currently no watches in effect.